createdAt,value
2023-04-13T00:02:29.254Z,100.00
2023-04-13T00:07:34.084Z,100.00
2023-04-13T00:12:41.068Z,100.00
2023-04-13T00:17:45.696Z,100.00
2023-04-13T00:22:49.700Z,100.00
2023-04-13T00:27:54.187Z,100.00
2023-04-13T00:32:57.466Z,100.00
2023-04-13T00:38:00.954Z,100.00
2023-04-13T00:43:05.802Z,100.00
2023-04-13T00:48:14.191Z,100.00
2023-04-13T00:53:18.673Z,100.00
2023-04-13T00:58:23.555Z,100.00
2023-04-13T01:03:27.890Z,100.00
2023-04-13T01:08:38.149Z,100.00
2023-04-13T01:13:48.821Z,100.00
2023-04-13T01:18:55.908Z,100.00
2023-04-13T01:24:18.207Z,100.00
2023-04-13T01:29:24.586Z,100.00
2023-04-13T01:34:29.147Z,100.00
2023-04-13T01:39:33.369Z,100.00
2023-04-13T01:44:39.123Z,100.00
2023-04-13T01:49:46.640Z,100.00
2023-04-13T01:54:53.418Z,100.00
2023-04-13T01:59:58.955Z,100.00
2023-04-13T02:05:02.108Z,100.00
2023-04-13T02:10:06.551Z,100.00
2023-04-13T02:15:12.702Z,100.00
2023-04-13T02:20:16.372Z,100.00
2023-04-13T02:25:19.837Z,100.00
2023-04-13T02:30:24.950Z,100.00
2023-04-13T02:35:28.522Z,100.00
2023-04-13T02:40:31.896Z,100.00
2023-04-13T02:45:36.786Z,100.00
2023-04-13T02:50:40.175Z,100.00
2023-04-13T02:55:43.386Z,100.00
2023-04-13T03:00:48.690Z,100.00
2023-04-13T03:05:52.676Z,100.00
2023-04-13T03:10:55.816Z,100.00
2023-04-13T03:16:02.163Z,100.00
2023-04-13T03:21:07.013Z,100.00
2023-04-13T03:26:14.128Z,100.00
2023-04-13T03:31:18.966Z,100.00
2023-04-13T03:36:22.112Z,100.00
2023-04-13T03:41:26.685Z,100.00
2023-04-13T03:46:33.320Z,100.00
2023-04-13T03:51:37.499Z,100.00
2023-04-13T03:56:41.386Z,100.00
2023-04-13T04:01:46.270Z,100.00
2023-04-13T04:06:49.956Z,100.00
2023-04-13T04:11:54.243Z,100.00
2023-04-13T04:16:58.906Z,100.00
2023-04-13T04:22:04.078Z,100.00
2023-04-13T04:27:08.039Z,100.00
2023-04-13T04:32:13.311Z,100.00
2023-04-13T04:37:20.665Z,100.00
2023-04-13T04:42:25.564Z,100.00
2023-04-13T04:47:30.825Z,100.00
2023-04-13T04:52:34.893Z,100.00
2023-04-13T04:57:47.994Z,100.00
2023-04-13T05:02:52.874Z,100.00
2023-04-13T05:07:56.438Z,100.00
2023-04-13T05:13:02.388Z,100.00
2023-04-13T05:18:07.531Z,98.26
2023-04-13T05:23:11.573Z,97.21
2023-04-13T05:28:15.068Z,96.20
2023-04-13T05:33:24.953Z,95.36
2023-04-13T05:38:39.484Z,95.05
2023-04-13T05:43:44.623Z,94.34
2023-04-13T05:48:55.571Z,93.90
2023-04-13T05:53:59.440Z,93.40
2023-04-13T05:59:05.906Z,92.68
2023-04-13T06:04:12.078Z,92.72
2023-04-13T06:09:15.847Z,92.20
2023-04-13T06:14:20.834Z,91.49
2023-04-13T06:19:28.261Z,90.21
2023-04-13T06:24:32.579Z,89.30
2023-04-13T06:29:37.842Z,88.99
2023-04-13T06:34:42.611Z,88.64
2023-04-13T06:39:46.236Z,87.31
2023-04-13T06:44:49.615Z,87.82
2023-04-13T06:49:55.098Z,87.00
2023-04-13T06:54:59.142Z,86.01
2023-04-13T07:00:02.410Z,84.71
2023-04-13T07:05:08.436Z,85.10
2023-04-13T07:10:12.140Z,82.60
2023-04-13T07:15:16.081Z,81.59
2023-04-13T07:20:22.348Z,80.47
2023-04-13T07:25:25.525Z,78.48
2023-04-13T07:30:28.810Z,75.04
2023-04-13T07:35:34.245Z,72.18
2023-04-13T07:40:41.167Z,67.17
2023-04-13T07:45:44.731Z,66.67
2023-04-13T07:50:49.285Z,64.54
2023-04-13T07:55:54.049Z,63.55
2023-04-13T08:00:57.502Z,63.08
2023-04-13T08:06:02.752Z,60.73
2023-04-13T08:11:06.279Z,57.12
2023-04-13T08:16:11.876Z,54.45
2023-04-13T08:21:17.039Z,52.49
2023-04-13T08:26:23.126Z,52.80
2023-04-13T08:31:27.118Z,51.17
2023-04-13T08:36:32.066Z,50.32
2023-04-13T08:41:39.819Z,50.35
2023-04-13T08:46:47.645Z,49.91
2023-04-13T08:51:53.287Z,49.00
2023-04-13T08:56:57.897Z,48.28
2023-04-13T09:02:04.951Z,48.45
2023-04-13T09:07:17.408Z,48.45
2023-04-13T09:12:20.823Z,48.20
2023-04-13T09:17:27.820Z,49.12
2023-04-13T09:22:33.424Z,50.29
2023-04-13T09:27:37.241Z,48.50
2023-04-13T09:32:40.565Z,48.98
2023-04-13T09:37:48.029Z,49.22
2023-04-13T09:42:59.266Z,48.34
2023-04-13T09:48:03.607Z,48.50
2023-04-13T09:53:10.832Z,48.29
2023-04-13T09:58:16.870Z,47.63
2023-04-13T10:03:22.533Z,47.71
2023-04-13T10:08:38.032Z,47.57
2023-04-13T10:13:49.533Z,46.90
2023-04-13T10:19:00.909Z,47.65
2023-04-13T10:29:16.965Z,45.99
2023-04-13T10:34:26.503Z,47.59
2023-04-13T10:39:34.065Z,47.22
2023-04-13T10:44:47.620Z,47.59
2023-04-13T10:49:52.320Z,48.71
2023-04-13T10:54:58.891Z,49.18
2023-04-13T11:00:02.076Z,49.06
2023-04-13T11:05:06.251Z,50.23
2023-04-13T11:10:13.079Z,49.77
2023-04-13T11:15:21.084Z,50.36
2023-04-13T11:20:34.778Z,50.52
2023-04-13T11:25:39.587Z,49.31
2023-04-13T11:30:43.499Z,50.21
2023-04-13T11:35:50.096Z,50.49
2023-04-13T11:41:12.577Z,50.25
2023-04-13T11:46:25.441Z,49.92
2023-04-13T11:51:29.492Z,50.68
2023-04-13T11:56:34.288Z,50.37
2023-04-13T12:01:44.835Z,50.45
2023-04-13T12:06:53.193Z,50.76
2023-04-13T12:12:29.829Z,51.14
2023-04-13T12:22:50.953Z,51.10
2023-04-13T12:27:57.266Z,50.94
2023-04-13T12:33:01.157Z,51.30
2023-04-13T12:38:05.322Z,50.64
2023-04-13T12:43:10.078Z,51.43
2023-04-13T12:48:13.609Z,51.24
2023-04-13T12:53:17.117Z,51.27
2023-04-13T12:58:21.834Z,51.58
2023-04-13T13:03:25.221Z,50.73
2023-04-13T13:08:28.573Z,50.79
2023-04-13T13:13:33.246Z,50.51
2023-04-13T13:18:49.634Z,50.65
2023-04-13T13:23:53.939Z,51.25
2023-04-13T13:29:00.019Z,49.88
2023-04-13T13:34:04.847Z,50.91
2023-04-13T13:39:08.119Z,50.18
2023-04-13T13:44:13.110Z,50.08
2023-04-13T13:49:16.686Z,49.50
2023-04-13T13:54:21.062Z,49.44
2023-04-13T13:59:26.049Z,49.68
2023-04-13T14:04:29.713Z,50.37
2023-04-13T14:09:33.992Z,49.40
2023-04-13T14:14:38.879Z,49.52
2023-04-13T14:19:42.500Z,50.23
2023-04-13T14:24:46.558Z,50.30
2023-04-13T14:29:52.345Z,50.26
2023-04-13T14:34:56.772Z,49.71
2023-04-13T14:40:00.290Z,49.64
2023-04-13T14:45:06.826Z,48.91
2023-04-13T14:50:11.812Z,50.02
2023-04-13T14:55:16.855Z,49.51
2023-04-13T15:00:26.633Z,49.81
2023-04-13T15:05:31.515Z,50.14
2023-04-13T15:10:36.095Z,49.60
2023-04-13T15:15:41.654Z,49.57
2023-04-13T15:20:45.130Z,50.52
2023-04-13T15:25:48.464Z,50.65
2023-04-13T15:30:53.323Z,50.71
2023-04-13T15:36:07.828Z,50.74
2023-04-13T15:41:11.729Z,50.70
2023-04-13T15:46:16.757Z,51.29
2023-04-13T15:51:20.410Z,51.51
2023-04-13T15:56:26.530Z,51.27
2023-04-13T16:01:58.424Z,51.38
2023-04-13T16:07:12.950Z,52.33
2023-04-13T16:12:17.785Z,52.30
2023-04-13T16:17:31.136Z,52.59
2023-04-13T16:22:36.467Z,52.98
2023-04-13T16:27:41.774Z,53.24
2023-04-13T16:32:47.315Z,53.12
2023-04-13T16:37:50.471Z,52.72
2023-04-13T16:42:53.881Z,52.63
2023-04-13T16:47:58.774Z,53.17
2023-04-13T16:53:02.048Z,54.04
2023-04-13T16:58:07.431Z,54.13
2023-04-13T17:03:15.053Z,54.59
2023-04-13T17:08:18.484Z,54.71
2023-04-13T17:13:22.369Z,54.98
2023-04-13T17:18:30.285Z,55.43
2023-04-13T17:23:33.915Z,55.40
2023-04-13T17:28:37.143Z,56.27
2023-04-13T17:33:42.021Z,57.64
2023-04-13T17:38:46.448Z,57.22
2023-04-13T17:43:49.684Z,57.29
2023-04-13T17:48:54.515Z,56.91
2023-04-13T17:53:57.861Z,58.03
2023-04-13T17:59:01.795Z,57.41
2023-04-13T18:04:06.986Z,58.51
2023-04-13T18:09:12.954Z,58.80
2023-04-13T18:14:16.556Z,59.26
2023-04-13T18:19:21.398Z,60.35
2023-04-13T18:24:24.922Z,60.04
2023-04-13T18:29:28.214Z,59.97
2023-04-13T18:34:34.424Z,60.74
2023-04-13T18:39:39.643Z,60.41
2023-04-13T18:44:42.784Z,61.32
2023-04-13T18:49:47.622Z,61.09
2023-04-13T18:54:51.555Z,62.49
2023-04-13T18:59:56.970Z,63.21
2023-04-13T19:05:01.786Z,63.55
2023-04-13T19:10:05.876Z,65.33
2023-04-13T19:15:09.780Z,64.79
2023-04-13T19:20:14.536Z,65.94
2023-04-13T19:25:18.257Z,66.68
2023-04-13T19:30:21.959Z,65.96
2023-04-13T19:35:27.326Z,67.88
2023-04-13T19:40:30.728Z,67.59
2023-04-13T19:45:34.126Z,68.47
2023-04-13T19:50:38.950Z,69.32
2023-04-13T19:55:42.324Z,69.30
2023-04-13T20:00:47.381Z,70.61
2023-04-13T20:05:52.720Z,70.26
2023-04-13T20:10:57.908Z,70.78
2023-04-13T20:16:02.583Z,71.40
2023-04-13T20:21:08.229Z,71.84
2023-04-13T20:26:12.232Z,72.47
2023-04-13T20:31:15.871Z,72.67
2023-04-13T20:36:21.721Z,73.01
2023-04-13T20:41:25.055Z,73.26
2023-04-13T20:46:34.687Z,73.81
2023-04-13T20:51:39.881Z,74.95
2023-04-13T20:56:44.081Z,74.57
2023-04-13T21:01:49.019Z,74.71
2023-04-13T21:06:55.534Z,75.83
2023-04-13T21:11:59.344Z,76.58
2023-04-13T21:17:02.870Z,76.52
2023-04-13T21:22:07.740Z,77.67
2023-04-13T21:27:11.105Z,76.56
2023-04-13T21:32:14.774Z,77.25
2023-04-13T21:37:19.689Z,78.39
2023-04-13T21:42:23.043Z,78.24
2023-04-13T21:47:26.599Z,78.77
2023-04-13T21:52:31.705Z,79.66
2023-04-13T21:57:34.910Z,79.36
2023-04-13T22:02:38.235Z,80.33
2023-04-13T22:07:43.597Z,81.37
2023-04-13T22:12:47.657Z,81.79
2023-04-13T22:17:51.161Z,82.21
2023-04-13T22:22:55.889Z,82.72
2023-04-13T22:27:59.171Z,82.97
2023-04-13T22:33:03.669Z,83.75
2023-04-13T22:38:08.498Z,84.00
2023-04-13T22:43:12.011Z,84.23
2023-04-13T22:48:15.519Z,84.96
2023-04-13T22:53:20.537Z,84.69
2023-04-13T22:58:23.844Z,84.70
2023-04-13T23:03:27.685Z,85.00
2023-04-13T23:08:32.656Z,85.25
2023-04-13T23:13:36.803Z,85.78
2023-04-13T23:18:40.096Z,85.21
2023-04-13T23:23:44.976Z,86.27
2023-04-13T23:28:48.496Z,85.74
2023-04-13T23:33:53.473Z,86.21
2023-04-13T23:38:59.796Z,87.37
2023-04-13T23:44:03.294Z,87.57
2023-04-13T23:49:06.763Z,88.12
2023-04-13T23:54:12.199Z,88.01
2023-04-13T23:59:15.672Z,88.28
